Connexion S'enregistrer

Connexion à votre compte

Identifiant
Mot de passe
Maintenir la connexion active sur ce site

Créer un compte

Pour valider ce formulaire, vous devez remplir tous les champs.
Nom
Identifiant
Mot de passe
Répétez le mot de passe
Adresse e-mail
Répétez l'adresse e-mail

Veuillez saisir l'adresse e-mail associée à votre compte d'utilisateur. Votre identifiant vous sera envoyé à cette adresse.

Nous contacter

 Téléphone : +33 (0)4 79 54 41 81

Coordonnées détaillées et accès : cliquez ici

 
LFLB °C
    Ferienhaus Ostsee
[source: ADDS]
METAR
LFLB 190500Z AUTO 02010KT 9999 BKN031 03/M01 Q1028 =
TAF LFLB 190500Z 1906/2006 02010KT 9999 FEW035 BKN200 TEMPO 1906/1915 02015G25KT BKN030
TAF
TAF LFLB 190500Z 1906/2006 02010KT 9999 FEW035 BKN200 TEMPO 1906/1915 02015G25KT BKN030 =
SR / SS: 07:10 / 16:23 UTC (Lever/Coucher du soleil le 2020-01-19)
JSN Boot template designed by JoomlaShine.com